createdAt,value
2018-12-04T00:01:02.257Z,3.60
2018-12-04T00:03:50.426Z,3.30
2018-12-04T00:06:19.416Z,6.87
2018-12-04T00:08:48.157Z,4.07
2018-12-04T00:11:17.641Z,3.77
2018-12-04T00:14:05.819Z,3.57
2018-12-04T00:16:35.406Z,6.10
2018-12-04T00:19:04.437Z,6.33
2018-12-04T00:21:33.429Z,4.90
2018-12-04T00:24:21.892Z,4.40
2018-12-04T00:26:50.838Z,3.17
2018-12-04T00:29:19.909Z,4.80
2018-12-04T00:31:49.136Z,2.40
2018-12-04T00:34:18.089Z,7.80
2018-12-04T00:36:46.801Z,7.97
2018-12-04T00:39:15.784Z,4.93
2018-12-04T00:41:44.845Z,3.53
2018-12-04T00:44:13.805Z,6.87
2018-12-04T00:46:42.853Z,4.40
2018-12-04T00:49:11.580Z,1.97
2018-12-04T00:51:40.291Z,5.23
2018-12-04T00:54:28.504Z,4.87
2018-12-04T00:56:57.220Z,5.00
2018-12-04T00:59:26.160Z,4.20
2018-12-04T01:01:57.029Z,1.47
2018-12-04T01:04:25.745Z,2.33
2018-12-04T01:06:54.536Z,4.77
2018-12-04T01:09:23.749Z,2.53
2018-12-04T01:11:52.697Z,2.50
2018-12-04T01:14:21.488Z,4.83
2018-12-04T01:16:50.256Z,1.73
2018-12-04T01:19:19.596Z,1.97
2018-12-04T01:21:51.381Z,1.60
2018-12-04T01:24:20.353Z,3.47
2018-12-04T01:26:49.057Z,6.17
2018-12-04T01:29:18.000Z,3.50
2018-12-04T01:31:46.956Z,2.93
2018-12-04T01:34:15.661Z,2.73
2018-12-04T01:36:44.604Z,1.90
2018-12-04T01:39:13.329Z,3.93
2018-12-04T01:41:42.132Z,4.10
2018-12-04T01:44:30.306Z,2.77
2018-12-04T01:46:59.493Z,2.90
2018-12-04T01:49:28.441Z,3.10
2018-12-04T01:52:16.606Z,5.70
2018-12-04T01:54:45.561Z,5.60
2018-12-04T01:57:14.493Z,2.93
2018-12-04T01:59:43.777Z,4.13
2018-12-04T02:02:31.937Z,2.00
2018-12-04T02:05:00.660Z,3.90
2018-12-04T02:07:29.381Z,3.10
2018-12-04T02:09:58.347Z,4.33
2018-12-04T02:12:46.528Z,4.90
2018-12-04T02:15:15.488Z,1.17
2018-12-04T02:17:44.688Z,1.00
2018-12-04T02:20:13.708Z,2.90
2018-12-04T02:23:01.861Z,1.50
2018-12-04T02:25:30.686Z,6.13
2018-12-04T02:27:59.708Z,3.40
2018-12-04T02:30:28.797Z,4.07
2018-12-04T02:33:17.218Z,4.53
2018-12-04T02:35:45.913Z,3.63
2018-12-04T02:38:14.858Z,3.30
2018-12-04T02:40:43.572Z,2.17
2018-12-04T02:43:14.104Z,2.43
2018-12-04T02:45:43.217Z,1.80
2018-12-04T02:48:11.930Z,4.67
2018-12-04T02:50:41.145Z,1.47
2018-12-04T02:53:29.559Z,5.27
2018-12-04T02:55:58.519Z,2.40
2018-12-04T02:58:27.439Z,2.33
2018-12-04T03:00:56.405Z,5.20
2018-12-04T03:03:44.597Z,3.17
2018-12-04T03:06:13.373Z,1.43
2018-12-04T03:08:42.122Z,2.43
2018-12-04T03:11:11.649Z,2.03
2018-12-04T03:13:59.820Z,2.40
2018-12-04T03:16:29.043Z,1.37
2018-12-04T03:18:58.126Z,4.90
2018-12-04T03:21:27.375Z,1.73
2018-12-04T03:24:15.814Z,2.53
2018-12-04T03:26:51.686Z,2.00
2018-12-04T03:29:20.925Z,1.50
2018-12-04T03:31:49.882Z,2.03
2018-12-04T03:34:38.110Z,1.27
2018-12-04T03:37:07.089Z,1.73
2018-12-04T03:39:36.259Z,1.33
2018-12-04T03:42:05.087Z,3.73
2018-12-04T03:44:53.304Z,1.30
2018-12-04T03:47:22.043Z,0.83
2018-12-04T03:49:50.996Z,1.17
2018-12-04T03:52:19.715Z,2.30
2018-12-04T03:57:20.790Z,1.17
2018-12-04T03:59:50.057Z,0.70
2018-12-04T04:02:18.892Z,1.13
2018-12-04T04:05:07.162Z,0.40
2018-12-04T04:07:36.456Z,0.43
2018-12-04T04:10:05.588Z,0.97
2018-12-04T04:12:34.310Z,0.50
2018-12-04T04:15:22.477Z,0.30
2018-12-04T04:17:51.436Z,1.33
2018-12-04T04:20:20.544Z,1.23
2018-12-04T04:22:49.533Z,0.30
2018-12-04T04:25:18.501Z,0.67
2018-12-04T04:27:47.429Z,0.40
2018-12-04T04:30:16.213Z,0.90
2018-12-04T04:32:45.181Z,0.50
2018-12-04T04:35:13.889Z,0.43
2018-12-04T04:37:42.590Z,0.23
2018-12-04T04:40:11.579Z,0.40
2018-12-04T04:42:40.560Z,0.40
2018-12-04T04:45:28.716Z,0.50
2018-12-04T04:47:57.694Z,2.07
2018-12-04T04:50:26.941Z,0.30
2018-12-04T04:52:55.678Z,0.30
2018-12-04T04:55:24.608Z,0.30
2018-12-04T04:57:53.607Z,0.93
2018-12-04T05:00:22.313Z,0.50
2018-12-04T05:03:28.828Z,0.50
2018-12-04T05:06:01.075Z,0.90
2018-12-04T05:08:35.549Z,0.30
2018-12-04T05:11:11.216Z,0.93
2018-12-04T05:13:41.588Z,2.53
2018-12-04T05:16:16.960Z,1.03
2018-12-04T05:18:49.581Z,1.40
2018-12-04T05:21:34.436Z,0.90
2018-12-04T05:24:16.732Z,0.30
2018-12-04T05:26:45.628Z,0.40
2018-12-04T05:29:14.398Z,0.97
2018-12-04T05:31:44.290Z,0.40
2018-12-04T05:34:16.315Z,0.70
2018-12-04T05:36:48.388Z,1.00
2018-12-04T05:39:21.013Z,0.83
2018-12-04T05:41:49.722Z,2.90
2018-12-04T05:44:18.476Z,1.70
2018-12-04T05:46:47.248Z,3.13
2018-12-04T05:49:19.585Z,4.70
2018-12-04T05:51:48.297Z,0.87
2018-12-04T05:54:17.000Z,1.20
2018-12-04T05:56:45.784Z,1.00
2018-12-04T05:59:27.399Z,1.20
2018-12-04T06:01:56.281Z,2.77
2018-12-04T06:04:28.898Z,1.10
2018-12-04T06:06:57.704Z,0.50
2018-12-04T06:09:26.475Z,1.17
2018-12-04T06:11:55.212Z,2.37
2018-12-04T06:14:26.928Z,1.43
2018-12-04T06:17:01.357Z,0.87
2018-12-04T06:19:30.144Z,0.73
2018-12-04T06:21:58.861Z,1.60
2018-12-04T06:24:31.020Z,0.73
2018-12-04T06:26:59.844Z,0.83
2018-12-04T06:29:28.683Z,1.03
2018-12-04T06:31:57.400Z,1.83
2018-12-04T06:34:29.860Z,2.53
2018-12-04T06:36:58.575Z,2.53
2018-12-04T06:39:27.284Z,0.73
2018-12-04T06:42:16.951Z,1.30
2018-12-04T06:44:47.556Z,2.97
2018-12-04T06:47:16.302Z,1.30
2018-12-04T06:49:45.023Z,2.13
2018-12-04T06:52:13.732Z,1.57
2018-12-04T06:54:45.645Z,2.83
2018-12-04T06:57:18.353Z,1.93
2018-12-04T07:00:00.032Z,1.00
2018-12-04T07:02:34.415Z,0.90
2018-12-04T07:05:07.047Z,3.23
2018-12-04T07:07:48.869Z,2.07
2018-12-04T07:10:18.048Z,2.83
2018-12-04T07:12:46.797Z,2.60
2018-12-04T07:15:15.640Z,1.27
2018-12-04T07:17:56.405Z,3.10
2018-12-04T07:20:28.260Z,3.00
2018-12-04T07:22:57.190Z,3.83
2018-12-04T07:25:34.256Z,1.47
2018-12-04T07:28:03.061Z,2.27
2018-12-04T07:30:31.791Z,2.50
2018-12-04T07:33:06.521Z,1.93
2018-12-04T07:35:35.232Z,2.37
2018-12-04T07:38:04.068Z,3.27
2018-12-04T07:40:32.944Z,2.60
2018-12-04T07:43:04.852Z,2.50
2018-12-04T07:45:33.580Z,2.73
2018-12-04T07:48:02.343Z,6.20
2018-12-04T07:50:32.112Z,1.77
2018-12-04T07:53:00.844Z,3.17
2018-12-04T07:55:30.317Z,2.20
2018-12-04T07:57:59.057Z,2.40
2018-12-04T08:00:34.560Z,5.73
2018-12-04T08:03:09.620Z,6.67
2018-12-04T08:05:44.723Z,2.73
2018-12-04T08:08:23.739Z,4.00
2018-12-04T08:13:52.308Z,2.20
2018-12-04T08:16:28.291Z,4.47
2018-12-04T08:19:07.388Z,1.63
2018-12-04T08:21:39.129Z,1.33
2018-12-04T08:24:14.340Z,3.90
2018-12-04T08:26:43.595Z,2.70
2018-12-04T08:29:16.313Z,2.53
2018-12-04T08:31:44.996Z,1.63
2018-12-04T08:34:20.477Z,2.20
2018-12-04T08:37:01.640Z,1.73
2018-12-04T08:39:30.456Z,2.50
2018-12-04T08:41:59.161Z,3.63
2018-12-04T08:44:31.516Z,2.63
2018-12-04T08:47:12.586Z,2.40
2018-12-04T08:49:50.932Z,3.13
2018-12-04T08:52:23.774Z,5.67
2018-12-04T08:54:55.740Z,2.17
2018-12-04T08:57:27.959Z,2.00
2018-12-04T09:00:08.832Z,4.40
2018-12-04T09:02:39.759Z,6.03
2018-12-04T09:05:11.511Z,2.73
2018-12-04T09:07:41.264Z,2.97
2018-12-04T09:10:25.956Z,2.47
2018-12-04T09:12:54.660Z,5.07
2018-12-04T09:15:28.956Z,5.50
2018-12-04T09:18:05.880Z,7.07
2018-12-04T09:20:38.183Z,4.20
2018-12-04T09:23:07.020Z,2.57
2018-12-04T09:25:42.274Z,6.70
2018-12-04T09:28:14.716Z,5.10
2018-12-04T09:30:43.465Z,2.30
2018-12-04T09:33:25.064Z,2.97
2018-12-04T09:36:04.641Z,4.60
2018-12-04T09:38:39.228Z,2.77
2018-12-04T09:41:08.024Z,6.10
2018-12-04T09:43:36.812Z,4.30
2018-12-04T09:46:11.220Z,4.13
2018-12-04T09:48:39.929Z,5.23
2018-12-04T09:51:14.677Z,4.87
2018-12-04T09:53:52.235Z,4.67
2018-12-04T09:56:26.259Z,3.67
2018-12-04T09:59:01.073Z,8.23
2018-12-04T10:01:39.967Z,3.57
2018-12-04T10:04:08.679Z,5.03
2018-12-04T10:06:37.476Z,3.73
2018-12-04T10:09:08.109Z,5.13
2018-12-04T10:11:42.996Z,7.43
2018-12-04T10:14:15.124Z,3.03
2018-12-04T10:17:01.590Z,4.60
2018-12-04T10:19:30.503Z,3.67
2018-12-04T10:24:54.092Z,3.37
2018-12-04T10:27:28.463Z,4.87
2018-12-04T10:29:57.476Z,3.73
2018-12-04T10:32:26.182Z,6.20
2018-12-04T10:35:00.393Z,3.87
2018-12-04T10:37:35.544Z,4.77
2018-12-04T10:40:11.635Z,2.67
2018-12-04T10:42:40.342Z,3.73
2018-12-04T10:45:12.795Z,7.53
2018-12-04T10:47:41.591Z,4.00
2018-12-04T10:50:10.463Z,3.17
2018-12-04T10:52:41.107Z,2.47
2018-12-04T10:55:13.014Z,3.80
2018-12-04T10:57:44.780Z,6.23
2018-12-04T11:00:30.628Z,5.70
2018-12-04T11:03:04.921Z,3.77
2018-12-04T11:05:45.793Z,3.63
2018-12-04T11:08:26.629Z,10.10
2018-12-04T11:10:55.368Z,5.37
2018-12-04T11:13:24.068Z,9.53
2018-12-04T11:15:57.127Z,7.17
2018-12-04T11:18:26.948Z,4.70
2018-12-04T11:20:55.649Z,4.43
2018-12-04T11:23:24.492Z,6.87
2018-12-04T11:25:59.532Z,4.33
2018-12-04T11:28:37.091Z,6.20
2018-12-04T11:31:05.804Z,3.77
2018-12-04T11:33:34.517Z,10.37
2018-12-04T11:36:09.226Z,3.00
2018-12-04T11:38:41.490Z,6.63
2018-12-04T11:41:13.320Z,4.80
2018-12-04T11:43:42.104Z,9.00
2018-12-04T11:46:14.623Z,3.87
2018-12-04T11:48:43.316Z,6.63
2018-12-04T11:51:13.720Z,8.13
2018-12-04T11:53:42.529Z,7.63
2018-12-04T11:56:14.915Z,4.37
2018-12-04T11:58:43.720Z,8.33
2018-12-04T12:01:16.667Z,3.50
2018-12-04T12:03:45.412Z,6.50
2018-12-04T12:06:18.088Z,7.27
2018-12-04T12:08:46.829Z,4.97
2018-12-04T12:11:15.665Z,5.80
2018-12-04T12:16:37.553Z,7.53
2018-12-04T12:19:06.344Z,4.50
2018-12-04T12:21:35.171Z,3.57
2018-12-04T12:26:56.711Z,6.30
2018-12-04T12:29:28.536Z,4.43
2018-12-04T12:32:02.736Z,4.10
2018-12-04T12:34:37.220Z,7.87
2018-12-04T12:37:05.973Z,5.63
2018-12-04T12:39:34.692Z,4.07
2018-12-04T12:42:03.534Z,7.97
2018-12-04T12:44:38.477Z,5.07
2018-12-04T12:47:16.943Z,8.03
2018-12-04T12:49:45.731Z,4.90
2018-12-04T12:52:35.527Z,6.17
2018-12-04T12:55:14.116Z,3.03
2018-12-04T12:57:42.973Z,4.47
2018-12-04T13:00:11.717Z,1.63
2018-12-04T13:02:41.000Z,11.17
2018-12-04T13:05:13.516Z,4.47
2018-12-04T13:07:47.965Z,7.70
2018-12-04T13:10:16.743Z,7.57
2018-12-04T13:12:45.496Z,3.50
2018-12-04T13:15:17.560Z,4.63
2018-12-04T13:17:46.331Z,5.03
2018-12-04T13:20:15.015Z,6.37
2018-12-04T13:22:47.815Z,4.60
2018-12-04T13:25:19.714Z,2.23
2018-12-04T13:27:58.532Z,4.90
2018-12-04T13:30:27.312Z,5.60
2018-12-04T13:32:56.020Z,4.93
2018-12-04T13:35:30.547Z,8.30
2018-12-04T13:37:59.484Z,6.13
2018-12-04T13:40:28.219Z,4.13
2018-12-04T13:43:00.260Z,3.10
2018-12-04T13:45:34.821Z,5.70
2018-12-04T13:48:03.620Z,4.17
2018-12-04T13:50:32.328Z,6.93
2018-12-04T13:53:01.099Z,4.00
2018-12-04T13:55:33.433Z,3.37
2018-12-04T13:58:02.176Z,5.60
2018-12-04T14:00:30.947Z,8.80
2018-12-04T14:02:59.777Z,4.87
2018-12-04T14:05:32.528Z,4.67
2018-12-04T14:08:05.282Z,3.13
2018-12-04T14:10:40.807Z,4.23
2018-12-04T14:13:09.683Z,2.73
2018-12-04T14:15:41.669Z,4.93
2018-12-04T14:18:10.419Z,3.20
2018-12-04T14:20:52.568Z,3.10
2018-12-04T14:23:21.284Z,4.10
2018-12-04T14:25:53.256Z,5.27
2018-12-04T14:28:21.962Z,8.20
2018-12-04T14:30:50.767Z,3.47
2018-12-04T14:33:27.156Z,3.17
2018-12-04T14:38:56.328Z,4.37
2018-12-04T14:41:25.032Z,5.63
2018-12-04T14:43:53.781Z,4.10
2018-12-04T14:46:25.599Z,8.27
2018-12-04T14:48:54.453Z,4.20
2018-12-04T14:51:23.340Z,4.30
2018-12-04T14:53:52.051Z,6.93
2018-12-04T14:56:30.558Z,5.17
2018-12-04T14:59:00.311Z,5.30
2018-12-04T15:01:29.087Z,3.43
2018-12-04T15:03:57.859Z,3.97
2018-12-04T15:06:36.503Z,5.00
2018-12-04T15:09:09.153Z,4.00
2018-12-04T15:11:45.369Z,2.17
2018-12-04T15:14:14.076Z,2.70
2018-12-04T15:16:46.349Z,3.97
2018-12-04T15:19:19.963Z,2.73
2018-12-04T15:22:00.904Z,4.03
2018-12-04T15:24:29.685Z,4.77
2018-12-04T15:27:02.205Z,7.07
2018-12-04T15:29:51.757Z,3.97
2018-12-04T15:32:20.517Z,3.67
2018-12-04T15:34:54.767Z,3.33
2018-12-04T15:37:23.537Z,3.57
2018-12-04T15:39:52.966Z,6.77
2018-12-04T15:42:28.096Z,2.70
2018-12-04T15:45:08.758Z,1.93
2018-12-04T15:47:37.602Z,5.53
2018-12-04T15:50:07.428Z,3.70
2018-12-04T15:52:47.953Z,4.97
2018-12-04T15:55:19.804Z,6.90
2018-12-04T15:57:55.076Z,5.70
2018-12-04T16:00:23.899Z,5.53
2018-12-04T16:02:52.679Z,7.97
2018-12-04T16:05:24.480Z,9.93
2018-12-04T16:07:53.220Z,11.87
2018-12-04T16:10:22.003Z,8.23
2018-12-04T16:12:50.760Z,13.77
2018-12-04T16:15:22.984Z,9.03
2018-12-04T16:17:51.730Z,8.77
2018-12-04T16:20:20.422Z,9.43
2018-12-04T16:22:49.212Z,10.93
2018-12-04T16:25:21.810Z,7.70
2018-12-04T16:27:50.515Z,15.50
2018-12-04T16:30:19.396Z,11.50
2018-12-04T16:32:48.159Z,11.53
2018-12-04T16:35:20.339Z,17.33
2018-12-04T16:37:49.032Z,9.50
2018-12-04T16:40:17.730Z,7.87
2018-12-04T16:42:46.436Z,7.77
2018-12-04T16:45:19.015Z,4.57
2018-12-04T16:47:47.769Z,5.57
2018-12-04T16:50:16.595Z,4.93
2018-12-04T16:52:45.295Z,3.70
2018-12-04T16:55:18.764Z,4.87
2018-12-04T16:57:47.527Z,4.67
2018-12-04T17:00:21.816Z,4.77
2018-12-04T17:02:50.514Z,3.33
2018-12-04T17:05:22.524Z,3.40
2018-12-04T17:08:06.800Z,3.00
2018-12-04T17:10:35.564Z,2.80
2018-12-04T17:13:04.332Z,2.50
2018-12-04T17:15:36.848Z,2.53
2018-12-04T17:18:05.607Z,3.93
2018-12-04T17:20:36.320Z,8.17
2018-12-04T17:23:05.108Z,4.90
2018-12-04T17:25:37.500Z,6.07
2018-12-04T17:28:06.207Z,4.40
2018-12-04T17:30:34.971Z,3.90
2018-12-04T17:33:24.536Z,3.60
2018-12-04T17:35:56.803Z,3.07
2018-12-04T17:38:25.521Z,5.50
2018-12-04T17:40:54.208Z,8.47
2018-12-04T17:43:30.549Z,7.53
2018-12-04T17:46:11.292Z,5.53
2018-12-04T17:48:40.200Z,4.20
2018-12-04T17:51:15.273Z,5.23
2018-12-04T17:53:44.063Z,8.67
2018-12-04T17:56:16.191Z,6.43
2018-12-04T17:58:44.884Z,6.83
2018-12-04T18:01:13.737Z,5.37
2018-12-04T18:03:42.695Z,10.37
2018-12-04T18:06:23.960Z,12.40
2018-12-04T18:08:52.676Z,15.37
2018-12-04T18:11:21.443Z,13.70
2018-12-04T18:13:50.210Z,13.20
2018-12-04T18:16:22.489Z,9.27
2018-12-04T18:18:51.207Z,5.73
2018-12-04T18:21:19.963Z,6.20
2018-12-04T18:23:48.675Z,4.67
2018-12-04T18:26:20.480Z,3.47
2018-12-04T18:28:49.188Z,3.63
2018-12-04T18:31:17.896Z,3.50
2018-12-04T18:33:50.780Z,3.93
2018-12-04T18:36:23.140Z,4.47
2018-12-04T18:38:53.156Z,5.27
2018-12-04T18:41:32.247Z,6.37
2018-12-04T18:44:01.527Z,3.73
2018-12-04T18:46:33.345Z,3.43
2018-12-04T18:49:02.309Z,2.53
2018-12-04T18:51:34.852Z,4.80
2018-12-04T18:54:09.581Z,4.63
2018-12-04T18:56:41.679Z,5.90
2018-12-04T18:59:10.383Z,3.90
2018-12-04T19:01:39.165Z,4.93
2018-12-04T19:04:08.880Z,3.87
2018-12-04T19:06:40.942Z,4.63
2018-12-04T19:09:09.839Z,7.83
2018-12-04T19:11:38.985Z,4.47
2018-12-04T19:14:11.059Z,6.40
2018-12-04T19:16:44.804Z,4.53
2018-12-04T19:19:13.608Z,4.73
2018-12-04T19:21:48.904Z,5.33
2018-12-04T19:24:17.632Z,3.53
2018-12-04T19:26:49.337Z,5.07
2018-12-04T19:29:18.171Z,5.37
2018-12-04T19:31:46.895Z,3.77
2018-12-04T19:34:15.706Z,3.87
2018-12-04T19:36:50.201Z,6.67
2018-12-04T19:39:18.929Z,6.27
2018-12-04T19:41:47.640Z,4.47
2018-12-04T19:44:16.385Z,5.47
2018-12-04T19:46:48.120Z,6.10
2018-12-04T19:49:18.933Z,6.83
2018-12-04T19:51:47.783Z,6.03
2018-12-04T19:54:16.477Z,8.10
2018-12-04T19:56:49.040Z,4.10
2018-12-04T19:59:23.360Z,7.63
2018-12-04T20:01:58.680Z,7.47
2018-12-04T20:04:27.469Z,6.07
2018-12-04T20:06:59.828Z,8.17
2018-12-04T20:09:28.648Z,3.87
2018-12-04T20:11:57.449Z,6.23
2018-12-04T20:17:22.926Z,2.83
2018-12-04T20:19:51.794Z,6.53
2018-12-04T20:22:20.700Z,3.40
2018-12-04T20:24:49.407Z,5.30
2018-12-04T20:27:19.164Z,5.63
2018-12-04T20:29:47.932Z,6.73
2018-12-04T20:32:16.907Z,6.60
2018-12-04T20:34:45.610Z,5.07
2018-12-04T20:37:14.452Z,9.43
2018-12-04T20:39:43.153Z,5.73
2018-12-04T20:42:11.872Z,5.77
2018-12-04T20:44:40.620Z,8.10
2018-12-04T20:47:14.824Z,10.53
2018-12-04T20:49:43.558Z,5.77
2018-12-04T20:52:12.255Z,4.57
2018-12-04T20:54:41.014Z,6.70
2018-12-04T20:57:13.639Z,11.27
2018-12-04T20:59:42.457Z,9.67
2018-12-04T21:02:17.481Z,6.70
2018-12-04T21:04:49.660Z,7.27
2018-12-04T21:07:18.363Z,11.43
2018-12-04T21:09:47.075Z,13.53
2018-12-04T21:12:15.799Z,11.67
2018-12-04T21:14:44.524Z,10.93
2018-12-04T21:17:13.550Z,14.73
2018-12-04T21:19:47.909Z,13.37
2018-12-04T21:22:18.015Z,11.27
2018-12-04T21:24:46.827Z,12.37
2018-12-04T21:27:20.978Z,12.00
2018-12-04T21:30:07.496Z,13.03
2018-12-04T21:32:41.700Z,10.07
2018-12-04T21:35:19.785Z,15.23
2018-12-04T21:37:54.024Z,7.00
2018-12-04T21:40:29.606Z,6.53
2018-12-04T21:43:15.648Z,6.03
2018-12-04T21:45:53.264Z,4.13
2018-12-04T21:48:26.272Z,2.93
2018-12-04T21:50:55.116Z,5.50
2018-12-04T21:53:23.902Z,7.17
2018-12-04T21:55:56.610Z,9.03
2018-12-04T21:58:25.349Z,3.37
2018-12-04T22:00:54.401Z,3.50
2018-12-04T22:03:23.112Z,5.30
2018-12-04T22:05:55.396Z,4.20
2018-12-04T22:08:24.080Z,5.60
2018-12-04T22:10:52.834Z,6.17
2018-12-04T22:13:24.936Z,6.20
2018-12-04T22:15:57.667Z,2.70
2018-12-04T22:18:31.924Z,5.83
2018-12-04T22:21:00.727Z,5.47
2018-12-04T22:23:29.439Z,4.57
2018-12-04T22:26:01.640Z,3.73
2018-12-04T22:28:30.377Z,4.77
2018-12-04T22:30:59.191Z,6.40
2018-12-04T22:33:27.898Z,4.40
2018-12-04T22:35:59.957Z,3.10
2018-12-04T22:38:28.680Z,3.13
2018-12-04T22:40:57.427Z,2.47
2018-12-04T22:43:32.144Z,5.47
2018-12-04T22:46:04.996Z,2.77
2018-12-04T22:48:33.730Z,6.13
2018-12-04T22:51:02.436Z,3.63
2018-12-04T22:53:31.159Z,5.20
2018-12-04T22:56:05.464Z,4.23
2018-12-04T22:58:34.413Z,2.17
2018-12-04T23:01:03.523Z,3.73
2018-12-04T23:03:32.204Z,4.30
2018-12-04T23:06:04.240Z,3.43
2018-12-04T23:08:32.965Z,6.03
2018-12-04T23:11:16.364Z,4.13
2018-12-04T23:13:45.084Z,8.13
2018-12-04T23:16:17.496Z,7.53
2018-12-04T23:18:46.203Z,10.23
2018-12-04T23:21:14.952Z,6.37
2018-12-04T23:23:43.740Z,6.30
2018-12-04T23:26:15.916Z,4.73
2018-12-04T23:28:53.235Z,5.43
2018-12-04T23:31:21.991Z,10.73
2018-12-04T23:33:50.747Z,5.13
2018-12-04T23:36:22.684Z,5.90
2018-12-04T23:38:51.386Z,5.20
2018-12-04T23:41:20.092Z,4.83
2018-12-04T23:43:50.368Z,4.63
2018-12-04T23:46:22.259Z,6.23
2018-12-04T23:48:50.965Z,5.77
2018-12-04T23:51:19.716Z,5.70
2018-12-04T23:54:04.920Z,3.67
2018-12-04T23:56:36.951Z,10.43
2018-12-04T23:59:05.793Z,18.63
